createdAt,value
2023-01-20T00:00:54.370Z,1.54
2023-01-20T00:03:58.270Z,1.50
2023-01-20T00:07:02.554Z,1.49
2023-01-20T00:10:07.973Z,1.46
2023-01-20T00:13:11.014Z,1.45
2023-01-20T00:16:14.313Z,1.45
2023-01-20T00:19:17.567Z,1.41
2023-01-20T00:22:34.203Z,1.43
2023-01-20T00:25:37.249Z,1.43
2023-01-20T00:28:40.442Z,1.41
2023-01-20T00:31:44.492Z,1.41
2023-01-20T00:34:47.272Z,1.39
2023-01-20T00:37:50.443Z,1.39
2023-01-20T00:40:57.539Z,1.39
2023-01-20T00:44:01.304Z,1.39
2023-01-20T00:47:05.110Z,1.39
2023-01-20T00:50:11.391Z,1.38
2023-01-20T00:53:14.290Z,1.38
2023-01-20T00:56:20.720Z,1.35
2023-01-20T00:59:23.489Z,1.30
2023-01-20T01:02:26.789Z,1.19
2023-01-20T01:05:29.770Z,1.14
2023-01-20T01:08:35.563Z,1.09
2023-01-20T01:11:38.677Z,1.01
2023-01-20T01:14:42.467Z,0.92
2023-01-20T01:17:45.612Z,0.87
2023-01-20T01:20:48.691Z,0.79
2023-01-20T01:23:53.307Z,0.67
2023-01-20T01:26:56.088Z,0.56
2023-01-20T01:29:58.947Z,0.56
2023-01-20T01:33:01.752Z,0.59
2023-01-20T01:36:06.533Z,0.64
2023-01-20T01:39:09.636Z,0.68
2023-01-20T01:42:19.592Z,0.70
2023-01-20T01:45:26.192Z,0.73
2023-01-20T01:48:39.540Z,0.79
2023-01-20T01:51:58.432Z,0.81
2023-01-20T01:55:03.069Z,0.83
2023-01-20T01:58:13.830Z,0.81
2023-01-20T02:01:18.430Z,0.80
2023-01-20T02:04:24.721Z,0.76
2023-01-20T02:07:28.815Z,0.78
2023-01-20T02:10:32.420Z,0.77
2023-01-20T02:13:36.823Z,0.82
2023-01-20T02:16:59.133Z,0.87
2023-01-20T02:20:05.438Z,0.81
2023-01-20T02:23:38.453Z,0.77
2023-01-20T02:27:23.917Z,0.79
2023-01-20T02:30:51.820Z,0.85
2023-01-20T02:34:03.495Z,0.87
2023-01-20T02:37:14.655Z,0.80
2023-01-20T02:40:25.645Z,0.86
2023-01-20T02:43:48.496Z,0.87
2023-01-20T02:47:04.092Z,0.89
2023-01-20T02:50:14.063Z,0.93
2023-01-20T02:53:20.445Z,0.95
2023-01-20T02:56:28.352Z,0.98
2023-01-20T02:59:37.321Z,0.97
2023-01-20T03:02:42.933Z,1.00
2023-01-20T03:05:52.156Z,0.98
2023-01-20T03:08:56.643Z,1.06
2023-01-20T03:12:05.578Z,1.08
2023-01-20T03:15:10.070Z,1.08
2023-01-20T03:18:13.108Z,1.08
2023-01-20T03:21:19.345Z,1.11
2023-01-20T03:24:27.848Z,1.11
2023-01-20T03:27:30.722Z,1.11
2023-01-20T03:30:34.269Z,1.11
2023-01-20T03:33:37.031Z,1.10
2023-01-20T03:36:42.068Z,1.10
2023-01-20T03:39:45.149Z,1.09
2023-01-20T03:43:00.146Z,1.06
2023-01-20T03:46:14.745Z,1.10
2023-01-20T03:49:24.223Z,1.12
2023-01-20T03:52:46.502Z,1.16
2023-01-20T03:56:14.565Z,1.18
2023-01-20T03:59:20.502Z,1.15
2023-01-20T04:02:35.423Z,1.18
2023-01-20T04:05:41.923Z,1.20
2023-01-20T04:08:57.186Z,1.21
2023-01-20T04:12:00.189Z,1.19
2023-01-20T04:15:03.135Z,1.19
2023-01-20T04:18:25.743Z,1.19
2023-01-20T04:21:37.028Z,1.19
2023-01-20T04:25:00.147Z,1.19
2023-01-20T04:28:03.091Z,1.16
2023-01-20T04:31:18.102Z,1.18
2023-01-20T04:34:28.452Z,1.14
2023-01-20T04:37:33.525Z,1.15
2023-01-20T04:40:36.430Z,1.16
2023-01-20T04:43:44.186Z,1.16
2023-01-20T04:46:47.528Z,1.19
2023-01-20T04:49:51.059Z,1.23
2023-01-20T04:52:59.359Z,1.24
2023-01-20T04:56:04.119Z,1.23
2023-01-20T04:59:08.404Z,1.22
2023-01-20T05:02:13.043Z,1.24
2023-01-20T05:05:18.044Z,1.27
2023-01-20T05:08:23.864Z,1.31
2023-01-20T05:11:33.348Z,1.33
2023-01-20T05:14:37.956Z,1.33
2023-01-20T05:17:41.587Z,1.36
2023-01-20T05:20:46.316Z,1.38
2023-01-20T05:23:50.506Z,1.38
2023-01-20T05:26:53.795Z,1.39
2023-01-20T05:29:56.425Z,1.43
2023-01-20T05:32:59.470Z,1.43
2023-01-20T05:36:07.676Z,1.47
2023-01-20T05:39:11.898Z,1.49
2023-01-20T05:42:17.593Z,1.52
2023-01-20T05:45:34.411Z,1.53
2023-01-20T05:48:41.283Z,1.56
2023-01-20T05:51:45.258Z,1.59
2023-01-20T05:54:49.774Z,1.62
2023-01-20T05:57:52.886Z,1.61
2023-01-20T06:00:55.815Z,1.62
2023-01-20T06:03:58.727Z,1.61
2023-01-20T06:07:01.754Z,1.60
2023-01-20T06:10:09.027Z,1.61
2023-01-20T06:13:18.407Z,1.62
2023-01-20T06:16:23.291Z,1.62
2023-01-20T06:19:32.354Z,1.61
2023-01-20T06:22:41.423Z,1.64
2023-01-20T06:25:45.624Z,1.65
2023-01-20T06:28:49.527Z,1.67
2023-01-20T06:31:53.753Z,1.71
2023-01-20T06:35:00.984Z,1.73
2023-01-20T06:38:14.427Z,1.75
2023-01-20T06:41:25.256Z,1.79
2023-01-20T06:44:33.412Z,1.80
2023-01-20T06:47:38.184Z,1.83
2023-01-20T06:50:43.478Z,1.84
2023-01-20T06:53:48.537Z,1.85
2023-01-20T06:56:53.371Z,1.88
2023-01-20T06:59:59.353Z,1.86
2023-01-20T07:03:04.781Z,1.90
2023-01-20T07:06:14.352Z,1.94
2023-01-20T07:09:18.473Z,1.96
2023-01-20T07:12:28.101Z,1.98
2023-01-20T07:15:34.790Z,2.01
2023-01-20T07:18:42.678Z,2.05
2023-01-20T07:21:50.233Z,2.08
2023-01-20T07:24:53.867Z,2.11
2023-01-20T07:27:59.334Z,2.13
2023-01-20T07:31:11.951Z,2.16
2023-01-20T07:34:17.732Z,2.17
2023-01-20T07:37:21.820Z,2.17
2023-01-20T07:40:25.586Z,2.19
2023-01-20T07:43:29.023Z,2.22
2023-01-20T07:46:35.437Z,2.28
2023-01-20T07:49:39.109Z,2.32
2023-01-20T07:52:44.354Z,2.32
2023-01-20T07:55:48.607Z,2.41
2023-01-20T07:59:01.340Z,2.41
2023-01-20T08:02:06.485Z,2.45
2023-01-20T08:05:16.502Z,2.48
2023-01-20T08:08:19.295Z,2.49
2023-01-20T08:11:23.855Z,2.53
2023-01-20T08:14:27.585Z,2.55
2023-01-20T08:17:36.272Z,2.56
2023-01-20T08:20:41.767Z,2.55
2023-01-20T08:23:50.859Z,2.59
2023-01-20T08:26:53.522Z,2.58
2023-01-20T08:29:57.844Z,2.63
2023-01-20T08:33:08.408Z,2.67
2023-01-20T08:36:31.316Z,2.69
2023-01-20T08:39:36.470Z,2.71
2023-01-20T08:42:42.881Z,2.74
2023-01-20T08:45:48.174Z,2.72
2023-01-20T08:48:53.045Z,2.72
2023-01-20T08:52:10.730Z,2.74
2023-01-20T08:55:17.424Z,2.77
2023-01-20T08:58:27.634Z,2.77
2023-01-20T09:01:38.346Z,2.80
2023-01-20T09:04:42.531Z,2.83
2023-01-20T09:07:47.253Z,2.85
2023-01-20T09:11:09.665Z,2.87
2023-01-20T09:14:25.679Z,2.90
2023-01-20T09:17:29.027Z,2.87
2023-01-20T09:20:32.478Z,2.87
2023-01-20T09:23:42.500Z,2.90
2023-01-20T09:26:52.381Z,2.92
2023-01-20T09:30:09.614Z,2.94
2023-01-20T09:33:15.646Z,2.95
2023-01-20T09:36:18.616Z,2.96
2023-01-20T09:39:41.115Z,3.00
2023-01-20T09:43:34.064Z,3.00
2023-01-20T09:46:40.141Z,3.02
2023-01-20T09:50:09.039Z,3.05
2023-01-20T09:53:46.769Z,3.08
2023-01-20T09:56:55.511Z,3.10
2023-01-20T10:00:11.793Z,3.12
2023-01-20T10:03:47.329Z,3.15
2023-01-20T10:06:59.911Z,3.18
2023-01-20T10:10:26.603Z,3.22
2023-01-20T10:13:41.088Z,3.24
2023-01-20T10:16:54.470Z,3.24
2023-01-20T10:20:04.581Z,3.26
2023-01-20T10:23:15.455Z,3.29
2023-01-20T10:26:39.311Z,3.32
2023-01-20T10:29:48.017Z,3.39
2023-01-20T10:33:01.470Z,3.43
2023-01-20T10:36:15.859Z,3.50
2023-01-20T10:39:35.367Z,3.58
2023-01-20T10:42:40.523Z,3.65
2023-01-20T10:45:59.021Z,3.67
2023-01-20T10:49:37.201Z,3.64
2023-01-20T10:53:02.380Z,3.70
2023-01-20T10:56:25.901Z,3.75
2023-01-20T10:59:35.382Z,3.77
2023-01-20T11:02:50.530Z,3.78
2023-01-20T11:05:54.306Z,3.79
2023-01-20T11:09:19.666Z,3.78
2023-01-20T11:12:27.618Z,3.78
2023-01-20T11:15:37.379Z,3.81
2023-01-20T11:18:40.111Z,3.81
2023-01-20T11:21:47.285Z,3.80
2023-01-20T11:24:56.043Z,3.80
2023-01-20T11:28:18.121Z,3.77
2023-01-20T11:31:33.077Z,3.69
2023-01-20T11:34:37.169Z,3.67
2023-01-20T11:37:45.301Z,3.59
2023-01-20T11:40:57.412Z,3.67
2023-01-20T11:44:01.576Z,3.56
2023-01-20T11:47:25.082Z,3.55
2023-01-20T11:50:36.727Z,3.52
2023-01-20T11:53:39.913Z,3.49
2023-01-20T11:56:45.771Z,3.46
2023-01-20T11:59:58.201Z,3.39
2023-01-20T12:03:20.314Z,3.39
2023-01-20T12:06:44.108Z,3.34
2023-01-20T12:09:53.521Z,3.30
2023-01-20T12:13:18.568Z,3.25
2023-01-20T12:16:32.240Z,3.16
2023-01-20T12:19:55.682Z,3.13
2023-01-20T12:23:26.109Z,3.13
2023-01-20T12:26:36.597Z,3.12
2023-01-20T12:29:47.280Z,3.09
2023-01-20T12:32:50.946Z,2.87
2023-01-20T12:36:25.301Z,2.90
2023-01-20T12:39:51.913Z,2.94
2023-01-20T12:43:19.618Z,2.94
2023-01-20T12:46:23.671Z,2.83
2023-01-20T12:49:36.636Z,2.93
2023-01-20T12:52:53.372Z,2.95
2023-01-20T12:56:34.629Z,2.98
2023-01-20T13:00:17.999Z,2.94
2023-01-20T13:03:56.471Z,2.93
2023-01-20T13:07:31.330Z,2.90
2023-01-20T13:10:51.206Z,2.82
2023-01-20T13:14:12.023Z,2.83
2023-01-20T13:17:40.248Z,2.77
2023-01-20T13:20:50.728Z,2.73
2023-01-20T13:24:02.617Z,2.75
2023-01-20T13:27:33.223Z,2.69
2023-01-20T13:30:48.385Z,2.70
2023-01-20T13:33:56.481Z,2.67
2023-01-20T13:37:07.425Z,2.63
2023-01-20T13:40:50.514Z,2.63
2023-01-20T13:44:02.208Z,2.56
2023-01-20T13:47:11.068Z,2.52
2023-01-20T13:50:33.905Z,2.44
2023-01-20T13:53:37.848Z,2.35
2023-01-20T13:56:50.215Z,2.32
2023-01-20T13:59:57.553Z,2.27
2023-01-20T14:03:14.640Z,2.17
2023-01-20T14:06:24.130Z,2.11
2023-01-20T14:09:27.886Z,2.03
2023-01-20T14:12:43.511Z,2.00
2023-01-20T14:15:58.406Z,1.97
2023-01-20T14:19:33.245Z,1.92
2023-01-20T14:22:38.494Z,1.87
2023-01-20T14:26:00.322Z,1.78
2023-01-20T14:29:14.183Z,1.70
2023-01-20T14:32:34.376Z,1.59
2023-01-20T14:35:51.776Z,1.53
2023-01-20T14:38:58.934Z,1.49
2023-01-20T14:42:14.213Z,1.43
2023-01-20T14:45:32.522Z,1.37
2023-01-20T14:48:59.545Z,1.31
2023-01-20T14:52:13.356Z,1.22
2023-01-20T14:55:47.212Z,1.22
2023-01-20T14:59:00.710Z,1.19
2023-01-20T15:02:15.732Z,1.18
2023-01-20T15:05:28.788Z,1.16
2023-01-20T15:08:39.335Z,1.14
2023-01-20T15:11:51.320Z,1.08
2023-01-20T15:15:21.950Z,1.06
2023-01-20T15:18:27.312Z,1.05
2023-01-20T15:21:38.440Z,1.00
2023-01-20T15:24:47.626Z,0.99
2023-01-20T15:27:56.617Z,0.95
2023-01-20T15:31:13.635Z,0.93
2023-01-20T15:34:32.401Z,0.94
2023-01-20T15:37:45.248Z,0.94
2023-01-20T15:40:56.483Z,0.86
2023-01-20T15:44:18.364Z,0.87
2023-01-20T15:47:35.868Z,0.85
2023-01-20T15:50:42.172Z,0.83
2023-01-20T15:53:47.385Z,0.79
2023-01-20T15:56:50.559Z,0.77
2023-01-20T16:00:07.265Z,0.77
2023-01-20T16:03:16.389Z,0.74
2023-01-20T16:06:41.185Z,0.74
2023-01-20T16:09:53.251Z,0.76
2023-01-20T16:13:16.456Z,0.75
2023-01-20T16:16:34.264Z,0.74
2023-01-20T16:19:54.223Z,0.72
2023-01-20T16:23:19.205Z,0.75
2023-01-20T16:26:36.240Z,0.75
2023-01-20T16:29:47.216Z,0.72
2023-01-20T16:32:52.213Z,0.73
2023-01-20T16:35:57.267Z,0.72
2023-01-20T16:39:09.164Z,0.68
2023-01-20T16:42:23.212Z,0.71
2023-01-20T16:45:34.798Z,0.68
2023-01-20T16:48:46.232Z,0.62
2023-01-20T16:52:02.239Z,0.65
2023-01-20T16:55:22.389Z,0.63
2023-01-20T16:58:27.517Z,0.64
2023-01-20T17:01:33.274Z,0.64
2023-01-20T17:04:39.001Z,0.61
2023-01-20T17:07:58.281Z,0.59
2023-01-20T17:11:05.254Z,0.60
2023-01-20T17:14:13.298Z,0.57
2023-01-20T17:17:18.557Z,0.59
2023-01-20T17:20:35.549Z,0.64
2023-01-20T17:23:46.734Z,0.62
2023-01-20T17:26:58.194Z,0.56
2023-01-20T17:30:09.330Z,0.53
2023-01-20T17:33:17.373Z,0.56
2023-01-20T17:36:38.188Z,0.51
2023-01-20T17:39:47.960Z,0.53
2023-01-20T17:42:59.945Z,0.54
2023-01-20T17:46:20.703Z,0.51
2023-01-20T17:49:38.170Z,0.52
2023-01-20T17:52:55.990Z,0.52
2023-01-20T17:56:11.882Z,0.51
2023-01-20T17:59:27.518Z,0.53
2023-01-20T18:02:32.387Z,0.55
2023-01-20T18:05:44.204Z,0.56
2023-01-20T18:09:09.219Z,0.57
2023-01-20T18:12:16.499Z,0.58
2023-01-20T18:15:21.489Z,0.60
2023-01-20T18:18:32.169Z,0.58
2023-01-20T18:21:39.403Z,0.61
2023-01-20T18:24:52.316Z,0.60
2023-01-20T18:28:03.303Z,0.61
2023-01-20T18:31:19.260Z,0.58
2023-01-20T18:34:28.322Z,0.61
2023-01-20T18:37:34.432Z,0.61
2023-01-20T18:40:48.637Z,0.62
2023-01-20T18:44:06.577Z,0.65
2023-01-20T18:47:24.216Z,0.66
2023-01-20T18:50:29.315Z,0.66
2023-01-20T18:53:38.801Z,0.66
2023-01-20T18:56:50.811Z,0.65
2023-01-20T19:00:06.296Z,0.67
2023-01-20T19:03:15.371Z,0.67
2023-01-20T19:06:23.449Z,0.70
2023-01-20T19:09:28.282Z,0.69
2023-01-20T19:12:33.339Z,0.70
2023-01-20T19:15:38.286Z,0.72
2023-01-20T19:18:59.551Z,0.72
2023-01-20T19:22:09.946Z,0.73
2023-01-20T19:25:18.378Z,0.75
2023-01-20T19:28:25.313Z,0.75
2023-01-20T19:31:34.350Z,0.73
2023-01-20T19:34:40.323Z,0.75
2023-01-20T19:37:54.761Z,0.76
2023-01-20T19:41:17.313Z,0.76
2023-01-20T19:44:21.692Z,0.78
2023-01-20T19:47:31.573Z,0.77
2023-01-20T19:50:42.278Z,0.74
2023-01-20T19:53:57.186Z,0.74
2023-01-20T19:57:05.311Z,0.73
2023-01-20T20:00:12.443Z,0.71
2023-01-20T20:03:21.762Z,0.78
2023-01-20T20:06:35.949Z,0.75
2023-01-20T20:09:41.082Z,0.76
2023-01-20T20:12:47.333Z,0.79
2023-01-20T20:16:02.091Z,0.81
2023-01-20T20:19:18.910Z,0.79
2023-01-20T20:22:26.337Z,0.80
2023-01-20T20:25:33.708Z,0.80
2023-01-20T20:28:53.185Z,0.81
2023-01-20T20:32:02.438Z,0.84
2023-01-20T20:35:17.273Z,0.85
2023-01-20T20:38:21.797Z,0.84
2023-01-20T20:41:32.068Z,0.85
2023-01-20T20:44:42.312Z,0.87
2023-01-20T20:47:49.334Z,0.87
2023-01-20T20:51:09.462Z,0.88
2023-01-20T20:54:17.347Z,0.90
2023-01-20T20:57:21.182Z,0.92
2023-01-20T21:00:30.496Z,0.92
2023-01-20T21:03:36.606Z,0.90
2023-01-20T21:06:48.405Z,0.90
2023-01-20T21:09:54.538Z,0.97
2023-01-20T21:13:03.226Z,0.96
2023-01-20T21:16:15.913Z,0.93
2023-01-20T21:19:33.264Z,0.90
2023-01-20T21:22:41.594Z,0.93
2023-01-20T21:25:51.432Z,0.94
2023-01-20T21:29:06.469Z,0.94
2023-01-20T21:32:15.201Z,0.93
2023-01-20T21:35:27.406Z,0.94
2023-01-20T21:38:32.981Z,0.94
2023-01-20T21:41:48.172Z,0.95
2023-01-20T21:44:53.418Z,0.94
2023-01-20T21:48:16.903Z,0.93
2023-01-20T21:51:39.152Z,0.94
2023-01-20T21:54:45.510Z,0.95
2023-01-20T21:57:51.552Z,0.95
2023-01-20T22:00:56.805Z,0.96
2023-01-20T22:04:07.184Z,0.97
2023-01-20T22:07:11.310Z,0.97
2023-01-20T22:10:21.374Z,0.94
2023-01-20T22:13:29.246Z,0.98
2023-01-20T22:16:34.332Z,0.97
2023-01-20T22:19:38.261Z,0.98
2023-01-20T22:22:44.954Z,0.99
2023-01-20T22:25:56.652Z,0.99
2023-01-20T22:29:12.613Z,0.99
2023-01-20T22:32:18.909Z,0.96
2023-01-20T22:35:27.363Z,0.93
2023-01-20T22:38:31.004Z,0.98
2023-01-20T22:41:37.474Z,0.96
2023-01-20T22:44:42.146Z,0.97
2023-01-20T22:47:50.138Z,0.93
2023-01-20T22:51:10.604Z,0.95
2023-01-20T22:54:15.317Z,0.97
2023-01-20T22:57:18.521Z,0.95
2023-01-20T23:00:25.139Z,0.99
2023-01-20T23:03:28.848Z,0.95
2023-01-20T23:06:40.224Z,0.95
2023-01-20T23:09:46.907Z,0.94
2023-01-20T23:12:55.147Z,0.95
2023-01-20T23:15:59.629Z,0.94
2023-01-20T23:19:03.694Z,0.95
2023-01-20T23:22:07.732Z,0.93
2023-01-20T23:25:10.820Z,0.96
2023-01-20T23:28:17.062Z,0.93
2023-01-20T23:31:28.538Z,0.95
2023-01-20T23:34:32.546Z,0.99
2023-01-20T23:37:39.287Z,0.98
2023-01-20T23:40:43.455Z,0.98
2023-01-20T23:43:48.041Z,0.98
2023-01-20T23:46:51.106Z,0.99
2023-01-20T23:49:53.986Z,0.94
2023-01-20T23:52:58.270Z,0.94
2023-01-20T23:56:10.100Z,0.94
2023-01-20T23:59:13.280Z,0.93
